sensor_id;sensor_type;location;lat;lon;timestamp;temperature;humidity
17639;DHT22;8938;53.546;9.954;2023-05-07T00:04:25;13.00;99.90
17639;DHT22;8938;53.546;9.954;2023-05-07T00:09:16;13.00;99.90
17639;DHT22;8938;53.546;9.954;2023-05-07T00:16:34;13.00;99.90
17639;DHT22;8938;53.546;9.954;2023-05-07T00:18:59;13.00;99.90
17639;DHT22;8938;53.546;9.954;2023-05-07T00:21:25;13.00;99.90
17639;DHT22;8938;53.546;9.954;2023-05-07T00:23:54;12.90;99.90
17639;DHT22;8938;53.546;9.954;2023-05-07T00:26:19;12.80;99.90
17639;DHT22;8938;53.546;9.954;2023-05-07T00:28:45;12.80;99.90
17639;DHT22;8938;53.546;9.954;2023-05-07T00:33:38;12.90;99.90
17639;DHT22;8938;53.546;9.954;2023-05-07T00:36:03;12.90;99.90
17639;DHT22;8938;53.546;9.954;2023-05-07T00:38:31;13.00;99.90
17639;DHT22;8938;53.546;9.954;2023-05-07T00:40:57;13.00;99.90
17639;DHT22;8938;53.546;9.954;2023-05-07T00:43:23;13.00;99.90
17639;DHT22;8938;53.546;9.954;2023-05-07T00:45:49;12.90;99.90
17639;DHT22;8938;53.546;9.954;2023-05-07T00:48:15;12.80;99.90
17639;DHT22;8938;53.546;9.954;2023-05-07T00:50:42;12.80;99.90
17639;DHT22;8938;53.546;9.954;2023-05-07T00:55:35;12.80;99.90
17639;DHT22;8938;53.546;9.954;2023-05-07T00:58:01;12.90;99.90
17639;DHT22;8938;53.546;9.954;2023-05-07T01:00:26;12.90;99.90
17639;DHT22;8938;53.546;9.954;2023-05-07T01:02:52;12.90;99.90
17639;DHT22;8938;53.546;9.954;2023-05-07T01:05:19;12.90;99.90
17639;DHT22;8938;53.546;9.954;2023-05-07T01:10:12;13.00;99.90
17639;DHT22;8938;53.546;9.954;2023-05-07T01:12:38;13.00;99.90
17639;DHT22;8938;53.546;9.954;2023-05-07T01:15:06;13.00;99.90
17639;DHT22;8938;53.546;9.954;2023-05-07T01:17:36;13.00;99.90
17639;DHT22;8938;53.546;9.954;2023-05-07T01:20:04;13.00;99.90
17639;DHT22;8938;53.546;9.954;2023-05-07T01:22:34;12.90;99.90
17639;DHT22;8938;53.546;9.954;2023-05-07T01:25:02;12.90;99.90
17639;DHT22;8938;53.546;9.954;2023-05-07T01:27:29;12.80;99.90
17639;DHT22;8938;53.546;9.954;2023-05-07T01:29:55;12.80;99.90
17639;DHT22;8938;53.546;9.954;2023-05-07T01:35:04;12.70;99.90
17639;DHT22;8938;53.546;9.954;2023-05-07T01:37:31;13.00;99.90
17639;DHT22;8938;53.546;9.954;2023-05-07T01:39:57;12.70;99.90
17639;DHT22;8938;53.546;9.954;2023-05-07T01:47:15;12.80;99.90
17639;DHT22;8938;53.546;9.954;2023-05-07T01:49:43;12.90;99.90
17639;DHT22;8938;53.546;9.954;2023-05-07T01:52:10;12.90;99.90
17639;DHT22;8938;53.546;9.954;2023-05-07T01:54:36;12.90;99.90
17639;DHT22;8938;53.546;9.954;2023-05-07T01:59:28;13.00;99.90
17639;DHT22;8938;53.546;9.954;2023-05-07T02:01:54;13.00;99.90
17639;DHT22;8938;53.546;9.954;2023-05-07T02:04:19;12.90;99.90
17639;DHT22;8938;53.546;9.954;2023-05-07T02:06:45;12.90;99.90
17639;DHT22;8938;53.546;9.954;2023-05-07T02:09:10;12.90;99.90
17639;DHT22;8938;53.546;9.954;2023-05-07T02:11:36;12.90;99.90
17639;DHT22;8938;53.546;9.954;2023-05-07T02:14:01;13.00;99.90
17639;DHT22;8938;53.546;9.954;2023-05-07T02:16:27;13.00;99.90
17639;DHT22;8938;53.546;9.954;2023-05-07T02:18:53;13.10;99.90
17639;DHT22;8938;53.546;9.954;2023-05-07T02:21:18;13.00;99.90
17639;DHT22;8938;53.546;9.954;2023-05-07T02:23:44;13.00;99.90
17639;DHT22;8938;53.546;9.954;2023-05-07T02:26:10;13.00;99.90
17639;DHT22;8938;53.546;9.954;2023-05-07T02:28:36;13.00;99.90
17639;DHT22;8938;53.546;9.954;2023-05-07T02:31:05;13.00;99.90
17639;DHT22;8938;53.546;9.954;2023-05-07T02:33:30;13.00;99.90
17639;DHT22;8938;53.546;9.954;2023-05-07T02:36:08;12.90;99.90
17639;DHT22;8938;53.546;9.954;2023-05-07T02:38:34;12.90;99.90
17639;DHT22;8938;53.546;9.954;2023-05-07T02:41:00;12.90;99.90
17639;DHT22;8938;53.546;9.954;2023-05-07T02:43:25;12.90;99.90
17639;DHT22;8938;53.546;9.954;2023-05-07T02:46:06;13.00;99.90
17639;DHT22;8938;53.546;9.954;2023-05-07T02:48:32;13.00;99.90
17639;DHT22;8938;53.546;9.954;2023-05-07T02:50:58;13.00;99.90
17639;DHT22;8938;53.546;9.954;2023-05-07T02:53:24;13.00;99.90
17639;DHT22;8938;53.546;9.954;2023-05-07T02:55:52;13.00;99.90
17639;DHT22;8938;53.546;9.954;2023-05-07T03:00:44;13.00;99.90
17639;DHT22;8938;53.546;9.954;2023-05-07T03:03:09;12.90;99.90
17639;DHT22;8938;53.546;9.954;2023-05-07T03:05:36;12.90;99.90
17639;DHT22;8938;53.546;9.954;2023-05-07T03:08:01;12.90;99.90
17639;DHT22;8938;53.546;9.954;2023-05-07T03:10:27;12.90;99.90
17639;DHT22;8938;53.546;9.954;2023-05-07T03:12:52;12.80;99.90
17639;DHT22;8938;53.546;9.954;2023-05-07T03:15:18;12.90;99.90
17639;DHT22;8938;53.546;9.954;2023-05-07T03:17:43;12.90;99.90
17639;DHT22;8938;53.546;9.954;2023-05-07T03:20:09;12.90;99.90
17639;DHT22;8938;53.546;9.954;2023-05-07T03:22:36;12.80;99.90
17639;DHT22;8938;53.546;9.954;2023-05-07T03:25:01;12.70;99.90
17639;DHT22;8938;53.546;9.954;2023-05-07T03:27:27;12.70;99.90
17639;DHT22;8938;53.546;9.954;2023-05-07T03:32:18;12.70;99.90
17639;DHT22;8938;53.546;9.954;2023-05-07T03:34:44;12.70;99.90
17639;DHT22;8938;53.546;9.954;2023-05-07T03:37:09;12.80;99.90
17639;DHT22;8938;53.546;9.954;2023-05-07T03:39:35;12.80;99.90
17639;DHT22;8938;53.546;9.954;2023-05-07T03:42:00;12.90;99.90
17639;DHT22;8938;53.546;9.954;2023-05-07T03:44:26;12.90;99.90
17639;DHT22;8938;53.546;9.954;2023-05-07T03:46:51;13.00;99.90
17639;DHT22;8938;53.546;9.954;2023-05-07T03:49:19;13.00;99.90
17639;DHT22;8938;53.546;9.954;2023-05-07T03:51:44;12.80;99.90
17639;DHT22;8938;53.546;9.954;2023-05-07T03:54:10;12.80;99.90
17639;DHT22;8938;53.546;9.954;2023-05-07T03:56:36;12.70;99.90
17639;DHT22;8938;53.546;9.954;2023-05-07T03:59:01;12.80;99.90
17639;DHT22;8938;53.546;9.954;2023-05-07T04:01:27;12.80;99.90
17639;DHT22;8938;53.546;9.954;2023-05-07T04:03:52;12.80;99.90
17639;DHT22;8938;53.546;9.954;2023-05-07T04:06:18;12.90;99.90
17639;DHT22;8938;53.546;9.954;2023-05-07T04:08:43;12.90;99.90
17639;DHT22;8938;53.546;9.954;2023-05-07T04:11:14;12.80;99.90
17639;DHT22;8938;53.546;9.954;2023-05-07T04:16:06;12.80;99.90
17639;DHT22;8938;53.546;9.954;2023-05-07T04:18:32;12.90;99.90
17639;DHT22;8938;53.546;9.954;2023-05-07T04:20:57;12.80;99.90
17639;DHT22;8938;53.546;9.954;2023-05-07T04:23:23;13.00;99.90
17639;DHT22;8938;53.546;9.954;2023-05-07T04:25:48;13.00;99.90
17639;DHT22;8938;53.546;9.954;2023-05-07T04:28:14;13.10;99.90
17639;DHT22;8938;53.546;9.954;2023-05-07T04:30:39;13.00;99.90
17639;DHT22;8938;53.546;9.954;2023-05-07T04:33:06;13.10;99.90
17639;DHT22;8938;53.546;9.954;2023-05-07T04:35:32;13.10;99.90
17639;DHT22;8938;53.546;9.954;2023-05-07T04:40:24;13.10;99.90
17639;DHT22;8938;53.546;9.954;2023-05-07T04:42:50;13.00;99.90
17639;DHT22;8938;53.546;9.954;2023-05-07T04:45:15;13.00;99.90
17639;DHT22;8938;53.546;9.954;2023-05-07T04:47:41;13.10;99.90
17639;DHT22;8938;53.546;9.954;2023-05-07T04:50:07;13.00;99.90
17639;DHT22;8938;53.546;9.954;2023-05-07T04:52:33;13.00;99.90
17639;DHT22;8938;53.546;9.954;2023-05-07T04:55:00;13.10;99.90
17639;DHT22;8938;53.546;9.954;2023-05-07T04:57:26;13.10;99.90
17639;DHT22;8938;53.546;9.954;2023-05-07T04:59:51;13.00;99.90
17639;DHT22;8938;53.546;9.954;2023-05-07T05:02:20;13.00;99.90
17639;DHT22;8938;53.546;9.954;2023-05-07T05:04:45;13.00;99.90
17639;DHT22;8938;53.546;9.954;2023-05-07T05:07:11;13.00;99.90
17639;DHT22;8938;53.546;9.954;2023-05-07T05:09:37;13.10;99.90
17639;DHT22;8938;53.546;9.954;2023-05-07T05:12:02;13.00;99.90
17639;DHT22;8938;53.546;9.954;2023-05-07T05:14:28;13.00;99.90
17639;DHT22;8938;53.546;9.954;2023-05-07T05:16:54;13.00;99.90
17639;DHT22;8938;53.546;9.954;2023-05-07T05:21:46;13.00;99.90
17639;DHT22;8938;53.546;9.954;2023-05-07T05:24:11;13.00;99.90
17639;DHT22;8938;53.546;9.954;2023-05-07T05:26:37;13.00;99.90
17639;DHT22;8938;53.546;9.954;2023-05-07T05:29:02;12.90;99.90
17639;DHT22;8938;53.546;9.954;2023-05-07T05:31:29;12.90;99.90
17639;DHT22;8938;53.546;9.954;2023-05-07T05:33:55;13.00;99.90
17639;DHT22;8938;53.546;9.954;2023-05-07T05:36:21;12.90;99.90
17639;DHT22;8938;53.546;9.954;2023-05-07T05:38:46;12.90;99.90
17639;DHT22;8938;53.546;9.954;2023-05-07T05:41:12;12.90;99.90
17639;DHT22;8938;53.546;9.954;2023-05-07T05:46:03;12.80;99.90
17639;DHT22;8938;53.546;9.954;2023-05-07T05:50:55;12.80;99.90
17639;DHT22;8938;53.546;9.954;2023-05-07T05:53:21;12.80;99.90
17639;DHT22;8938;53.546;9.954;2023-05-07T05:55:46;12.90;99.90
17639;DHT22;8938;53.546;9.954;2023-05-07T05:58:12;13.10;99.90
17639;DHT22;8938;53.546;9.954;2023-05-07T06:03:04;13.10;99.90
17639;DHT22;8938;53.546;9.954;2023-05-07T06:05:29;13.00;99.90
17639;DHT22;8938;53.546;9.954;2023-05-07T06:07:59;13.00;99.90
17639;DHT22;8938;53.546;9.954;2023-05-07T06:10:25;13.00;99.90
17639;DHT22;8938;53.546;9.954;2023-05-07T06:12:51;13.10;99.90
17639;DHT22;8938;53.546;9.954;2023-05-07T06:15:17;13.10;99.90
17639;DHT22;8938;53.546;9.954;2023-05-07T06:17:42;13.10;99.90
17639;DHT22;8938;53.546;9.954;2023-05-07T06:20:08;13.20;99.90
17639;DHT22;8938;53.546;9.954;2023-05-07T06:22:34;13.30;99.90
17639;DHT22;8938;53.546;9.954;2023-05-07T06:24:59;13.20;99.90
17639;DHT22;8938;53.546;9.954;2023-05-07T06:27:25;13.30;99.90
17639;DHT22;8938;53.546;9.954;2023-05-07T06:29:51;13.30;99.90
17639;DHT22;8938;53.546;9.954;2023-05-07T06:32:16;13.30;99.90
17639;DHT22;8938;53.546;9.954;2023-05-07T06:34:42;13.40;99.90
17639;DHT22;8938;53.546;9.954;2023-05-07T06:37:08;13.40;99.90
17639;DHT22;8938;53.546;9.954;2023-05-07T06:39:33;13.50;99.90
17639;DHT22;8938;53.546;9.954;2023-05-07T06:42:00;13.40;99.90
17639;DHT22;8938;53.546;9.954;2023-05-07T06:44:25;13.40;99.90
17639;DHT22;8938;53.546;9.954;2023-05-07T06:46:51;13.30;99.90
17639;DHT22;8938;53.546;9.954;2023-05-07T06:49:17;13.30;99.90
17639;DHT22;8938;53.546;9.954;2023-05-07T06:51:44;13.30;99.90
17639;DHT22;8938;53.546;9.954;2023-05-07T06:54:10;13.10;99.90
17639;DHT22;8938;53.546;9.954;2023-05-07T06:56:35;13.10;99.90
17639;DHT22;8938;53.546;9.954;2023-05-07T06:59:02;13.30;99.90
17639;DHT22;8938;53.546;9.954;2023-05-07T07:01:28;13.30;99.90
17639;DHT22;8938;53.546;9.954;2023-05-07T07:03:54;13.40;99.90
17639;DHT22;8938;53.546;9.954;2023-05-07T07:06:19;13.40;99.90
17639;DHT22;8938;53.546;9.954;2023-05-07T07:08:45;13.40;99.90
17639;DHT22;8938;53.546;9.954;2023-05-07T07:13:37;13.40;99.90
17639;DHT22;8938;53.546;9.954;2023-05-07T07:16:03;13.30;99.90
17639;DHT22;8938;53.546;9.954;2023-05-07T07:18:28;13.40;99.90
17639;DHT22;8938;53.546;9.954;2023-05-07T07:20:54;13.60;99.90
17639;DHT22;8938;53.546;9.954;2023-05-07T07:23:20;13.60;99.90
17639;DHT22;8938;53.546;9.954;2023-05-07T07:25:45;13.60;99.90
17639;DHT22;8938;53.546;9.954;2023-05-07T07:30:38;13.70;99.90
17639;DHT22;8938;53.546;9.954;2023-05-07T07:33:04;13.70;99.90
17639;DHT22;8938;53.546;9.954;2023-05-07T07:35:30;13.80;99.90
17639;DHT22;8938;53.546;9.954;2023-05-07T07:37:56;13.90;99.90
17639;DHT22;8938;53.546;9.954;2023-05-07T07:40:22;13.90;99.90
17639;DHT22;8938;53.546;9.954;2023-05-07T07:42:48;13.90;99.90
17639;DHT22;8938;53.546;9.954;2023-05-07T07:45:15;13.90;99.90
17639;DHT22;8938;53.546;9.954;2023-05-07T07:47:41;13.90;99.90
17639;DHT22;8938;53.546;9.954;2023-05-07T07:50:07;13.90;99.90
17639;DHT22;8938;53.546;9.954;2023-05-07T07:52:33;14.00;99.90
17639;DHT22;8938;53.546;9.954;2023-05-07T07:54:59;14.00;99.90
17639;DHT22;8938;53.546;9.954;2023-05-07T07:57:24;14.00;99.90
17639;DHT22;8938;53.546;9.954;2023-05-07T07:59:50;14.30;99.90
17639;DHT22;8938;53.546;9.954;2023-05-07T08:02:16;14.30;99.90
17639;DHT22;8938;53.546;9.954;2023-05-07T08:04:42;14.30;99.90
17639;DHT22;8938;53.546;9.954;2023-05-07T08:07:09;14.30;99.90
17639;DHT22;8938;53.546;9.954;2023-05-07T08:09:37;14.40;99.90
17639;DHT22;8938;53.546;9.954;2023-05-07T08:12:03;14.30;99.90
17639;DHT22;8938;53.546;9.954;2023-05-07T08:14:28;11.20;99.90
17639;DHT22;8938;53.546;9.954;2023-05-07T08:16:54;14.10;99.90
17639;DHT22;8938;53.546;9.954;2023-05-07T08:19:20;14.00;99.90
17639;DHT22;8938;53.546;9.954;2023-05-07T08:21:47;14.00;99.90
17639;DHT22;8938;53.546;9.954;2023-05-07T08:24:13;13.90;99.90
17639;DHT22;8938;53.546;9.954;2023-05-07T08:26:39;13.90;99.90
17639;DHT22;8938;53.546;9.954;2023-05-07T08:29:05;14.00;99.90
17639;DHT22;8938;53.546;9.954;2023-05-07T08:31:31;13.90;99.90
17639;DHT22;8938;53.546;9.954;2023-05-07T08:33:57;14.00;99.90
17639;DHT22;8938;53.546;9.954;2023-05-07T08:36:22;14.20;99.90
17639;DHT22;8938;53.546;9.954;2023-05-07T08:38:48;14.20;99.90
17639;DHT22;8938;53.546;9.954;2023-05-07T08:41:15;14.30;99.90
17639;DHT22;8938;53.546;9.954;2023-05-07T08:43:41;14.30;99.90
17639;DHT22;8938;53.546;9.954;2023-05-07T08:46:09;14.30;99.90
17639;DHT22;8938;53.546;9.954;2023-05-07T08:48:35;14.60;99.90
17639;DHT22;8938;53.546;9.954;2023-05-07T08:51:01;14.70;99.90
17639;DHT22;8938;53.546;9.954;2023-05-07T08:53:27;14.70;99.90
17639;DHT22;8938;53.546;9.954;2023-05-07T08:55:53;14.70;99.90
17639;DHT22;8938;53.546;9.954;2023-05-07T08:58:18;14.80;99.90
17639;DHT22;8938;53.546;9.954;2023-05-07T09:00:44;14.90;99.90
17639;DHT22;8938;53.546;9.954;2023-05-07T09:03:10;14.90;99.90
17639;DHT22;8938;53.546;9.954;2023-05-07T09:05:39;14.80;99.90
17639;DHT22;8938;53.546;9.954;2023-05-07T09:08:07;14.90;99.90
17639;DHT22;8938;53.546;9.954;2023-05-07T09:10:33;14.90;99.90
17639;DHT22;8938;53.546;9.954;2023-05-07T09:12:59;14.80;99.90
17639;DHT22;8938;53.546;9.954;2023-05-07T09:15:25;14.80;99.90
17639;DHT22;8938;53.546;9.954;2023-05-07T09:17:51;14.70;99.90
17639;DHT22;8938;53.546;9.954;2023-05-07T09:20:17;14.80;99.90
17639;DHT22;8938;53.546;9.954;2023-05-07T09:22:42;14.80;99.90
17639;DHT22;8938;53.546;9.954;2023-05-07T09:25:09;14.90;99.90
17639;DHT22;8938;53.546;9.954;2023-05-07T09:27:35;15.00;99.90
17639;DHT22;8938;53.546;9.954;2023-05-07T09:30:07;15.00;99.90
17639;DHT22;8938;53.546;9.954;2023-05-07T09:32:35;15.00;99.90
17639;DHT22;8938;53.546;9.954;2023-05-07T09:35:03;15.00;99.90
17639;DHT22;8938;53.546;9.954;2023-05-07T09:37:30;15.10;99.90
17639;DHT22;8938;53.546;9.954;2023-05-07T09:39:58;15.10;99.90
17639;DHT22;8938;53.546;9.954;2023-05-07T09:42:26;15.00;99.90
17639;DHT22;8938;53.546;9.954;2023-05-07T09:44:52;15.10;99.90
17639;DHT22;8938;53.546;9.954;2023-05-07T09:47:24;15.10;99.90
17639;DHT22;8938;53.546;9.954;2023-05-07T09:49:50;15.00;99.90
17639;DHT22;8938;53.546;9.954;2023-05-07T09:52:20;15.00;99.90
17639;DHT22;8938;53.546;9.954;2023-05-07T09:54:47;15.10;99.90
17639;DHT22;8938;53.546;9.954;2023-05-07T09:57:13;15.10;99.90
17639;DHT22;8938;53.546;9.954;2023-05-07T09:59:43;15.10;99.90
17639;DHT22;8938;53.546;9.954;2023-05-07T10:02:09;15.20;99.90
17639;DHT22;8938;53.546;9.954;2023-05-07T10:04:35;15.30;99.90
17639;DHT22;8938;53.546;9.954;2023-05-07T10:07:03;15.10;99.90
17639;DHT22;8938;53.546;9.954;2023-05-07T10:09:30;15.10;99.90
17639;DHT22;8938;53.546;9.954;2023-05-07T10:11:57;15.10;99.90
17639;DHT22;8938;53.546;9.954;2023-05-07T10:14:24;15.10;99.90
17639;DHT22;8938;53.546;9.954;2023-05-07T10:16:51;15.00;99.90
17639;DHT22;8938;53.546;9.954;2023-05-07T10:19:18;15.10;99.90
17639;DHT22;8938;53.546;9.954;2023-05-07T10:21:54;15.30;99.90
17639;DHT22;8938;53.546;9.954;2023-05-07T10:24:25;15.30;99.90
17639;DHT22;8938;53.546;9.954;2023-05-07T10:26:52;15.40;99.90
17639;DHT22;8938;53.546;9.954;2023-05-07T10:29:33;15.40;99.90
17639;DHT22;8938;53.546;9.954;2023-05-07T10:34:29;15.40;99.90
17639;DHT22;8938;53.546;9.954;2023-05-07T10:36:59;15.40;99.90
17639;DHT22;8938;53.546;9.954;2023-05-07T10:39:25;15.40;99.90
17639;DHT22;8938;53.546;9.954;2023-05-07T10:41:51;15.50;99.90
17639;DHT22;8938;53.546;9.954;2023-05-07T10:44:28;15.40;99.90
17639;DHT22;8938;53.546;9.954;2023-05-07T10:47:08;15.60;99.90
17639;DHT22;8938;53.546;9.954;2023-05-07T10:52:29;15.70;99.90
17639;DHT22;8938;53.546;9.954;2023-05-07T10:57:44;15.80;99.90
17639;DHT22;8938;53.546;9.954;2023-05-07T11:05:28;16.00;99.90
17639;DHT22;8938;53.546;9.954;2023-05-07T11:10:21;15.90;99.90
17639;DHT22;8938;53.546;9.954;2023-05-07T11:12:51;15.90;99.90
17639;DHT22;8938;53.546;9.954;2023-05-07T11:15:40;16.10;99.90
17639;DHT22;8938;53.546;9.954;2023-05-07T11:18:08;16.10;99.90
17639;DHT22;8938;53.546;9.954;2023-05-07T11:26:13;16.40;99.90
17639;DHT22;8938;53.546;9.954;2023-05-07T11:28:43;16.40;99.90
17639;DHT22;8938;53.546;9.954;2023-05-07T11:31:10;16.40;99.90
17639;DHT22;8938;53.546;9.954;2023-05-07T11:33:37;16.30;99.90
17639;DHT22;8938;53.546;9.954;2023-05-07T11:36:04;16.20;99.90
17639;DHT22;8938;53.546;9.954;2023-05-07T11:38:30;16.20;99.90
17639;DHT22;8938;53.546;9.954;2023-05-07T11:40:57;16.10;99.90
17639;DHT22;8938;53.546;9.954;2023-05-07T11:43:26;16.20;99.90
17639;DHT22;8938;53.546;9.954;2023-05-07T11:45:52;16.40;99.90
17639;DHT22;8938;53.546;9.954;2023-05-07T11:48:17;16.50;99.90
17639;DHT22;8938;53.546;9.954;2023-05-07T11:51:03;16.60;99.90
17639;DHT22;8938;53.546;9.954;2023-05-07T11:53:36;16.70;99.90
17639;DHT22;8938;53.546;9.954;2023-05-07T11:56:11;16.60;99.90
17639;DHT22;8938;53.546;9.954;2023-05-07T11:58:40;16.50;99.90
17639;DHT22;8938;53.546;9.954;2023-05-07T12:01:08;16.70;99.90
17639;DHT22;8938;53.546;9.954;2023-05-07T12:03:40;16.90;99.90
17639;DHT22;8938;53.546;9.954;2023-05-07T12:06:10;17.20;99.90
17639;DHT22;8938;53.546;9.954;2023-05-07T12:08:38;17.20;99.90
17639;DHT22;8938;53.546;9.954;2023-05-07T12:11:07;17.20;99.90
17639;DHT22;8938;53.546;9.954;2023-05-07T12:13:33;17.20;99.90
17639;DHT22;8938;53.546;9.954;2023-05-07T12:15:59;17.20;99.80
17639;DHT22;8938;53.546;9.954;2023-05-07T12:18:24;17.10;99.40
17639;DHT22;8938;53.546;9.954;2023-05-07T12:20:51;17.10;99.90
17639;DHT22;8938;53.546;9.954;2023-05-07T12:23:17;17.10;99.90
17639;DHT22;8938;53.546;9.954;2023-05-07T12:25:43;17.20;99.90
17639;DHT22;8938;53.546;9.954;2023-05-07T12:28:16;17.50;99.90
17639;DHT22;8938;53.546;9.954;2023-05-07T12:30:46;17.70;99.90
17639;DHT22;8938;53.546;9.954;2023-05-07T12:33:20;17.90;99.80
17639;DHT22;8938;53.546;9.954;2023-05-07T12:35:49;18.00;99.10
17639;DHT22;8938;53.546;9.954;2023-05-07T12:38:16;18.20;99.20
17639;DHT22;8938;53.546;9.954;2023-05-07T12:40:49;18.30;99.20
17639;DHT22;8938;53.546;9.954;2023-05-07T12:43:27;18.40;99.00
17639;DHT22;8938;53.546;9.954;2023-05-07T12:45:59;18.20;98.70
17639;DHT22;8938;53.546;9.954;2023-05-07T12:48:25;18.20;99.20
17639;DHT22;8938;53.546;9.954;2023-05-07T12:50:56;18.40;99.00
17639;DHT22;8938;53.546;9.954;2023-05-07T12:53:24;18.50;98.90
17639;DHT22;8938;53.546;9.954;2023-05-07T12:55:52;18.50;98.10
17639;DHT22;8938;53.546;9.954;2023-05-07T12:58:26;18.40;98.30
17639;DHT22;8938;53.546;9.954;2023-05-07T13:00:54;18.30;98.20
17639;DHT22;8938;53.546;9.954;2023-05-07T13:05:53;18.20;98.20
17639;DHT22;8938;53.546;9.954;2023-05-07T13:08:40;18.20;98.40
17639;DHT22;8938;53.546;9.954;2023-05-07T13:11:09;18.50;98.70
17639;DHT22;8938;53.546;9.954;2023-05-07T13:13:36;18.50;98.70
17639;DHT22;8938;53.546;9.954;2023-05-07T13:16:03;18.70;98.10
17639;DHT22;8938;53.546;9.954;2023-05-07T13:18:33;18.50;97.60
17639;DHT22;8938;53.546;9.954;2023-05-07T13:20:59;18.40;98.00
17639;DHT22;8938;53.546;9.954;2023-05-07T13:23:26;18.40;98.20
17639;DHT22;8938;53.546;9.954;2023-05-07T13:25:51;18.50;98.00
17639;DHT22;8938;53.546;9.954;2023-05-07T13:28:19;18.40;98.10
17639;DHT22;8938;53.546;9.954;2023-05-07T13:30:46;18.40;98.20
17639;DHT22;8938;53.546;9.954;2023-05-07T13:33:11;18.30;98.40
17639;DHT22;8938;53.546;9.954;2023-05-07T13:35:37;18.30;98.50
17639;DHT22;8938;53.546;9.954;2023-05-07T13:38:03;18.20;98.50
17639;DHT22;8938;53.546;9.954;2023-05-07T13:40:28;18.30;98.10
17639;DHT22;8938;53.546;9.954;2023-05-07T13:42:57;18.70;98.20
17639;DHT22;8938;53.546;9.954;2023-05-07T13:45:24;18.60;98.10
17639;DHT22;8938;53.546;9.954;2023-05-07T13:47:51;18.80;98.10
17639;DHT22;8938;53.546;9.954;2023-05-07T13:50:16;18.80;98.30
17639;DHT22;8938;53.546;9.954;2023-05-07T13:52:43;18.70;97.60
17639;DHT22;8938;53.546;9.954;2023-05-07T13:55:09;18.60;97.70
17639;DHT22;8938;53.546;9.954;2023-05-07T13:57:38;18.60;97.50
17639;DHT22;8938;53.546;9.954;2023-05-07T14:00:04;18.60;97.70
17639;DHT22;8938;53.546;9.954;2023-05-07T14:02:31;18.60;97.60
17639;DHT22;8938;53.546;9.954;2023-05-07T14:04:57;18.70;97.80
17639;DHT22;8938;53.546;9.954;2023-05-07T14:07:23;18.80;97.40
17639;DHT22;8938;53.546;9.954;2023-05-07T14:09:49;18.80;97.10
17639;DHT22;8938;53.546;9.954;2023-05-07T14:12:14;18.90;97.20
17639;DHT22;8938;53.546;9.954;2023-05-07T14:14:40;18.90;97.30
17639;DHT22;8938;53.546;9.954;2023-05-07T14:17:07;18.90;97.40
17639;DHT22;8938;53.546;9.954;2023-05-07T14:19:33;18.90;97.10
17639;DHT22;8938;53.546;9.954;2023-05-07T14:21:59;19.00;96.80
17639;DHT22;8938;53.546;9.954;2023-05-07T14:24:25;19.00;97.10
17639;DHT22;8938;53.546;9.954;2023-05-07T14:26:51;19.10;97.30
17639;DHT22;8938;53.546;9.954;2023-05-07T14:29:16;19.20;97.10
17639;DHT22;8938;53.546;9.954;2023-05-07T14:31:44;19.20;96.80
17639;DHT22;8938;53.546;9.954;2023-05-07T14:34:10;19.30;96.60
17639;DHT22;8938;53.546;9.954;2023-05-07T14:36:36;19.20;96.80
17639;DHT22;8938;53.546;9.954;2023-05-07T14:39:01;19.30;97.10
17639;DHT22;8938;53.546;9.954;2023-05-07T14:41:27;19.20;97.20
17639;DHT22;8938;53.546;9.954;2023-05-07T14:43:53;19.40;97.00
17639;DHT22;8938;53.546;9.954;2023-05-07T14:46:19;19.60;96.50
17639;DHT22;8938;53.546;9.954;2023-05-07T14:48:45;19.60;96.40
17639;DHT22;8938;53.546;9.954;2023-05-07T14:51:13;19.70;96.20
17639;DHT22;8938;53.546;9.954;2023-05-07T14:53:39;19.80;96.10
17639;DHT22;8938;53.546;9.954;2023-05-07T14:56:04;19.80;95.90
17639;DHT22;8938;53.546;9.954;2023-05-07T14:58:31;19.70;95.90
17639;DHT22;8938;53.546;9.954;2023-05-07T15:00:56;19.80;96.00
17639;DHT22;8938;53.546;9.954;2023-05-07T15:03:22;20.00;95.70
17639;DHT22;8938;53.546;9.954;2023-05-07T15:05:48;20.00;95.50
17639;DHT22;8938;53.546;9.954;2023-05-07T15:08:16;19.90;95.00
17639;DHT22;8938;53.546;9.954;2023-05-07T15:10:41;19.90;95.20
17639;DHT22;8938;53.546;9.954;2023-05-07T15:13:08;19.80;95.10
17639;DHT22;8938;53.546;9.954;2023-05-07T15:15:34;19.60;95.30
17639;DHT22;8938;53.546;9.954;2023-05-07T15:18:00;19.40;95.30
17639;DHT22;8938;53.546;9.954;2023-05-07T15:20:26;19.30;95.30
17639;DHT22;8938;53.546;9.954;2023-05-07T15:22:52;19.40;95.20
17639;DHT22;8938;53.546;9.954;2023-05-07T15:25:17;19.40;95.50
17639;DHT22;8938;53.546;9.954;2023-05-07T15:27:43;19.40;95.80
17639;DHT22;8938;53.546;9.954;2023-05-07T15:30:09;19.40;95.90
17639;DHT22;8938;53.546;9.954;2023-05-07T15:32:36;19.50;96.00
17639;DHT22;8938;53.546;9.954;2023-05-07T15:35:02;19.50;96.20
17639;DHT22;8938;53.546;9.954;2023-05-07T15:37:30;19.40;95.90
17639;DHT22;8938;53.546;9.954;2023-05-07T15:39:56;19.30;95.50
17639;DHT22;8938;53.546;9.954;2023-05-07T15:42:22;19.20;95.60
17639;DHT22;8938;53.546;9.954;2023-05-07T15:44:47;19.00;95.60
17639;DHT22;8938;53.546;9.954;2023-05-07T15:47:14;19.10;95.60
17639;DHT22;8938;53.546;9.954;2023-05-07T15:49:40;19.20;95.70
17639;DHT22;8938;53.546;9.954;2023-05-07T15:52:06;19.10;95.40
17639;DHT22;8938;53.546;9.954;2023-05-07T15:54:31;19.00;95.80
17639;DHT22;8938;53.546;9.954;2023-05-07T15:56:57;19.10;95.70
17639;DHT22;8938;53.546;9.954;2023-05-07T15:59:23;19.20;95.50
17639;DHT22;8938;53.546;9.954;2023-05-07T16:01:48;19.20;95.40
17639;DHT22;8938;53.546;9.954;2023-05-07T16:04:14;19.30;95.30
17639;DHT22;8938;53.546;9.954;2023-05-07T16:06:39;19.30;95.30
17639;DHT22;8938;53.546;9.954;2023-05-07T16:09:05;19.30;95.30
17639;DHT22;8938;53.546;9.954;2023-05-07T16:11:31;19.20;95.00
17639;DHT22;8938;53.546;9.954;2023-05-07T16:13:58;19.20;95.50
17639;DHT22;8938;53.546;9.954;2023-05-07T16:16:25;19.20;95.70
17639;DHT22;8938;53.546;9.954;2023-05-07T16:18:54;19.20;95.60
17639;DHT22;8938;53.546;9.954;2023-05-07T16:21:20;19.20;95.30
17639;DHT22;8938;53.546;9.954;2023-05-07T16:23:46;19.20;95.00
17639;DHT22;8938;53.546;9.954;2023-05-07T16:26:12;19.20;95.30
17639;DHT22;8938;53.546;9.954;2023-05-07T16:28:39;19.30;95.20
17639;DHT22;8938;53.546;9.954;2023-05-07T16:31:07;19.30;95.30
17639;DHT22;8938;53.546;9.954;2023-05-07T16:33:33;19.40;95.30
17639;DHT22;8938;53.546;9.954;2023-05-07T16:35:58;19.40;95.20
17639;DHT22;8938;53.546;9.954;2023-05-07T16:38:24;19.40;95.40
17639;DHT22;8938;53.546;9.954;2023-05-07T16:40:51;19.30;95.30
17639;DHT22;8938;53.546;9.954;2023-05-07T16:43:17;19.60;95.00
17639;DHT22;8938;53.546;9.954;2023-05-07T16:45:44;19.40;95.00
17639;DHT22;8938;53.546;9.954;2023-05-07T16:48:11;19.40;94.90
17639;DHT22;8938;53.546;9.954;2023-05-07T16:50:36;19.40;95.00
17639;DHT22;8938;53.546;9.954;2023-05-07T16:53:04;19.40;94.90
17639;DHT22;8938;53.546;9.954;2023-05-07T16:55:30;19.40;95.00
17639;DHT22;8938;53.546;9.954;2023-05-07T16:57:59;19.50;95.00